sensor_id;sensor_type;location;lat;lon;timestamp;temperature;humidity
34099;DHT22;20374;49.474;10.944;2024-01-30T00:02:12;1.10;99.90
34099;DHT22;20374;49.474;10.944;2024-01-30T00:04:38;1.20;99.90
34099;DHT22;20374;49.474;10.944;2024-01-30T00:07:04;1.30;99.90
34099;DHT22;20374;49.474;10.944;2024-01-30T00:09:30;1.30;99.90
34099;DHT22;20374;49.474;10.944;2024-01-30T00:11:56;1.30;99.90
34099;DHT22;20374;49.474;10.944;2024-01-30T00:14:22;1.40;99.90
34099;DHT22;20374;49.474;10.944;2024-01-30T00:16:48;1.60;99.90
34099;DHT22;20374;49.474;10.944;2024-01-30T00:19:14;1.30;99.90
34099;DHT22;20374;49.474;10.944;2024-01-30T00:21:40;1.40;99.90
34099;DHT22;20374;49.474;10.944;2024-01-30T00:24:06;1.40;99.90
34099;DHT22;20374;49.474;10.944;2024-01-30T00:26:33;1.40;99.90
34099;DHT22;20374;49.474;10.944;2024-01-30T00:28:58;1.40;99.90
34099;DHT22;20374;49.474;10.944;2024-01-30T00:31:24;1.40;99.90
34099;DHT22;20374;49.474;10.944;2024-01-30T00:33:50;1.40;99.90
34099;DHT22;20374;49.474;10.944;2024-01-30T00:36:16;1.30;99.90
34099;DHT22;20374;49.474;10.944;2024-01-30T00:38:42;1.30;99.90
34099;DHT22;20374;49.474;10.944;2024-01-30T00:41:08;1.20;99.90
34099;DHT22;20374;49.474;10.944;2024-01-30T00:43:35;1.20;99.90
34099;DHT22;20374;49.474;10.944;2024-01-30T00:46:01;1.10;99.90
34099;DHT22;20374;49.474;10.944;2024-01-30T00:48:27;1.10;99.90
34099;DHT22;20374;49.474;10.944;2024-01-30T00:50:53;1.10;99.90
34099;DHT22;20374;49.474;10.944;2024-01-30T00:53:20;1.10;99.90
34099;DHT22;20374;49.474;10.944;2024-01-30T00:55:46;1.00;99.90
34099;DHT22;20374;49.474;10.944;2024-01-30T00:58:12;1.00;99.90
34099;DHT22;20374;49.474;10.944;2024-01-30T01:00:39;1.00;99.90
34099;DHT22;20374;49.474;10.944;2024-01-30T01:03:05;1.00;99.90
34099;DHT22;20374;49.474;10.944;2024-01-30T01:05:31;1.00;99.90
34099;DHT22;20374;49.474;10.944;2024-01-30T01:07:57;1.10;99.90
34099;DHT22;20374;49.474;10.944;2024-01-30T01:10:23;1.10;99.90
34099;DHT22;20374;49.474;10.944;2024-01-30T01:12:49;1.00;99.90
34099;DHT22;20374;49.474;10.944;2024-01-30T01:15:15;1.00;99.90
34099;DHT22;20374;49.474;10.944;2024-01-30T01:17:41;1.00;99.90
34099;DHT22;20374;49.474;10.944;2024-01-30T01:20:07;0.90;99.90
34099;DHT22;20374;49.474;10.944;2024-01-30T01:22:34;0.90;99.90
34099;DHT22;20374;49.474;10.944;2024-01-30T01:25:00;0.90;99.90
34099;DHT22;20374;49.474;10.944;2024-01-30T01:27:27;0.90;99.90
34099;DHT22;20374;49.474;10.944;2024-01-30T01:29:53;1.00;99.90
34099;DHT22;20374;49.474;10.944;2024-01-30T01:32:19;1.00;99.90
34099;DHT22;20374;49.474;10.944;2024-01-30T01:34:45;0.90;99.90
34099;DHT22;20374;49.474;10.944;2024-01-30T01:37:11;1.00;99.90
34099;DHT22;20374;49.474;10.944;2024-01-30T01:39:37;1.00;99.90
34099;DHT22;20374;49.474;10.944;2024-01-30T01:42:03;1.00;99.90
34099;DHT22;20374;49.474;10.944;2024-01-30T01:44:29;1.00;99.90
34099;DHT22;20374;49.474;10.944;2024-01-30T01:46:57;1.10;99.90
34099;DHT22;20374;49.474;10.944;2024-01-30T01:49:25;1.10;99.90
34099;DHT22;20374;49.474;10.944;2024-01-30T01:51:55;1.10;99.90
34099;DHT22;20374;49.474;10.944;2024-01-30T01:54:25;1.10;99.90
34099;DHT22;20374;49.474;10.944;2024-01-30T01:56:52;1.00;99.90
34099;DHT22;20374;49.474;10.944;2024-01-30T01:59:20;1.00;99.90
34099;DHT22;20374;49.474;10.944;2024-01-30T02:01:46;1.00;99.90
34099;DHT22;20374;49.474;10.944;2024-01-30T02:04:15;0.90;99.90
34099;DHT22;20374;49.474;10.944;2024-01-30T02:06:43;0.80;99.90
34099;DHT22;20374;49.474;10.944;2024-01-30T02:09:09;0.80;99.90
34099;DHT22;20374;49.474;10.944;2024-01-30T02:11:35;0.80;99.90
34099;DHT22;20374;49.474;10.944;2024-01-30T02:14:07;0.90;99.90
34099;DHT22;20374;49.474;10.944;2024-01-30T02:16:33;0.90;99.90
34099;DHT22;20374;49.474;10.944;2024-01-30T02:18:59;0.90;99.90
34099;DHT22;20374;49.474;10.944;2024-01-30T02:21:25;1.00;99.90
34099;DHT22;20374;49.474;10.944;2024-01-30T02:23:52;1.00;99.90
34099;DHT22;20374;49.474;10.944;2024-01-30T02:26:20;1.00;99.90
34099;DHT22;20374;49.474;10.944;2024-01-30T02:28:46;1.00;99.90
34099;DHT22;20374;49.474;10.944;2024-01-30T02:31:12;1.00;99.90
34099;DHT22;20374;49.474;10.944;2024-01-30T02:33:38;0.90;99.90
34099;DHT22;20374;49.474;10.944;2024-01-30T02:36:04;0.80;99.90
34099;DHT22;20374;49.474;10.944;2024-01-30T02:38:30;0.70;99.90
34099;DHT22;20374;49.474;10.944;2024-01-30T02:40:56;0.60;99.90
34099;DHT22;20374;49.474;10.944;2024-01-30T02:43:24;0.50;99.90
34099;DHT22;20374;49.474;10.944;2024-01-30T02:45:50;0.40;99.90
34099;DHT22;20374;49.474;10.944;2024-01-30T02:48:16;0.40;99.90
34099;DHT22;20374;49.474;10.944;2024-01-30T02:50:42;0.30;99.90
34099;DHT22;20374;49.474;10.944;2024-01-30T02:53:08;0.30;99.90
34099;DHT22;20374;49.474;10.944;2024-01-30T02:55:34;0.20;99.90
34099;DHT22;20374;49.474;10.944;2024-01-30T02:58:00;0.20;99.90
34099;DHT22;20374;49.474;10.944;2024-01-30T03:00:26;0.20;99.90
34099;DHT22;20374;49.474;10.944;2024-01-30T03:02:52;0.20;99.90
34099;DHT22;20374;49.474;10.944;2024-01-30T03:05:18;0.20;99.90
34099;DHT22;20374;49.474;10.944;2024-01-30T03:07:44;0.20;99.90
34099;DHT22;20374;49.474;10.944;2024-01-30T03:10:10;0.10;99.90
34099;DHT22;20374;49.474;10.944;2024-01-30T03:12:36;0.10;99.90
34099;DHT22;20374;49.474;10.944;2024-01-30T03:15:02;0.10;99.90
34099;DHT22;20374;49.474;10.944;2024-01-30T03:17:27;0.10;99.90
34099;DHT22;20374;49.474;10.944;2024-01-30T03:19:53;0.00;99.90
34099;DHT22;20374;49.474;10.944;2024-01-30T03:22:19;0.00;99.90
34099;DHT22;20374;49.474;10.944;2024-01-30T03:24:45;0.00;99.90
34099;DHT22;20374;49.474;10.944;2024-01-30T03:27:11;0.00;99.90
34099;DHT22;20374;49.474;10.944;2024-01-30T03:29:37;0.00;99.90
34099;DHT22;20374;49.474;10.944;2024-01-30T03:32:03;0.00;99.90
34099;DHT22;20374;49.474;10.944;2024-01-30T03:34:29;0.00;99.90
34099;DHT22;20374;49.474;10.944;2024-01-30T03:36:55;0.00;99.90
34099;DHT22;20374;49.474;10.944;2024-01-30T03:39:21;0.00;99.90
34099;DHT22;20374;49.474;10.944;2024-01-30T03:41:47;-0.10;99.90
34099;DHT22;20374;49.474;10.944;2024-01-30T03:44:13;-0.20;99.90
34099;DHT22;20374;49.474;10.944;2024-01-30T03:46:39;-0.30;99.90
34099;DHT22;20374;49.474;10.944;2024-01-30T03:49:05;-0.40;99.90
34099;DHT22;20374;49.474;10.944;2024-01-30T03:51:31;-0.50;99.90
34099;DHT22;20374;49.474;10.944;2024-01-30T03:53:57;-0.50;99.90
34099;DHT22;20374;49.474;10.944;2024-01-30T03:56:31;-0.60;99.90
34099;DHT22;20374;49.474;10.944;2024-01-30T03:58:57;-0.50;99.90
34099;DHT22;20374;49.474;10.944;2024-01-30T04:01:24;-0.50;99.90
34099;DHT22;20374;49.474;10.944;2024-01-30T04:03:50;-0.50;99.90
34099;DHT22;20374;49.474;10.944;2024-01-30T04:06:16;-0.30;99.90
34099;DHT22;20374;49.474;10.944;2024-01-30T04:08:42;-0.30;99.90
34099;DHT22;20374;49.474;10.944;2024-01-30T04:11:08;-0.40;99.90
34099;DHT22;20374;49.474;10.944;2024-01-30T04:13:34;-0.30;99.90
34099;DHT22;20374;49.474;10.944;2024-01-30T04:16:01;-0.30;99.90
34099;DHT22;20374;49.474;10.944;2024-01-30T04:18:28;-0.40;99.90
34099;DHT22;20374;49.474;10.944;2024-01-30T04:20:54;-0.50;99.90
34099;DHT22;20374;49.474;10.944;2024-01-30T04:23:21;-0.50;99.90
34099;DHT22;20374;49.474;10.944;2024-01-30T04:25:46;-0.40;99.90
34099;DHT22;20374;49.474;10.944;2024-01-30T04:28:12;-0.40;99.90
34099;DHT22;20374;49.474;10.944;2024-01-30T04:30:39;-0.50;99.90
34099;DHT22;20374;49.474;10.944;2024-01-30T04:33:05;-0.50;99.90
34099;DHT22;20374;49.474;10.944;2024-01-30T04:35:31;-0.60;99.90
34099;DHT22;20374;49.474;10.944;2024-01-30T04:37:57;-0.60;99.90
34099;DHT22;20374;49.474;10.944;2024-01-30T04:40:23;-0.50;99.90
34099;DHT22;20374;49.474;10.944;2024-01-30T04:42:49;-0.50;99.90
34099;DHT22;20374;49.474;10.944;2024-01-30T04:45:15;-0.50;99.90
34099;DHT22;20374;49.474;10.944;2024-01-30T04:47:41;-0.60;99.90
34099;DHT22;20374;49.474;10.944;2024-01-30T04:50:07;-0.60;99.90
34099;DHT22;20374;49.474;10.944;2024-01-30T04:52:34;-0.60;99.90
34099;DHT22;20374;49.474;10.944;2024-01-30T04:55:00;-0.50;99.90
34099;DHT22;20374;49.474;10.944;2024-01-30T04:57:26;-0.50;99.90
34099;DHT22;20374;49.474;10.944;2024-01-30T04:59:52;-0.50;99.90
34099;DHT22;20374;49.474;10.944;2024-01-30T05:02:18;-0.50;99.90
34099;DHT22;20374;49.474;10.944;2024-01-30T05:04:44;-0.50;99.90
34099;DHT22;20374;49.474;10.944;2024-01-30T05:07:10;-0.50;99.90
34099;DHT22;20374;49.474;10.944;2024-01-30T05:09:36;-0.60;99.90
34099;DHT22;20374;49.474;10.944;2024-01-30T05:12:02;-0.50;99.90
34099;DHT22;20374;49.474;10.944;2024-01-30T05:14:28;-0.50;99.90
34099;DHT22;20374;49.474;10.944;2024-01-30T05:16:54;-0.50;99.90
34099;DHT22;20374;49.474;10.944;2024-01-30T05:19:20;-0.40;99.90
34099;DHT22;20374;49.474;10.944;2024-01-30T05:21:47;-0.40;99.90
34099;DHT22;20374;49.474;10.944;2024-01-30T05:24:13;-0.40;99.90
34099;DHT22;20374;49.474;10.944;2024-01-30T05:26:39;-0.40;99.90
34099;DHT22;20374;49.474;10.944;2024-01-30T05:29:06;-0.40;99.90
34099;DHT22;20374;49.474;10.944;2024-01-30T05:31:32;-0.50;99.90
34099;DHT22;20374;49.474;10.944;2024-01-30T05:33:58;-0.40;99.90
34099;DHT22;20374;49.474;10.944;2024-01-30T05:36:24;-0.30;99.90
34099;DHT22;20374;49.474;10.944;2024-01-30T05:38:49;-0.30;99.90
34099;DHT22;20374;49.474;10.944;2024-01-30T05:41:15;-0.30;99.90
34099;DHT22;20374;49.474;10.944;2024-01-30T05:43:41;-0.30;99.90
34099;DHT22;20374;49.474;10.944;2024-01-30T05:46:07;-0.30;99.90
34099;DHT22;20374;49.474;10.944;2024-01-30T05:48:33;-0.30;99.90
34099;DHT22;20374;49.474;10.944;2024-01-30T05:51:01;-0.20;99.90
34099;DHT22;20374;49.474;10.944;2024-01-30T05:53:27;-0.20;99.90
34099;DHT22;20374;49.474;10.944;2024-01-30T05:55:53;-0.10;99.90
34099;DHT22;20374;49.474;10.944;2024-01-30T05:58:19;-0.10;99.90
34099;DHT22;20374;49.474;10.944;2024-01-30T06:00:45;0.00;99.90
34099;DHT22;20374;49.474;10.944;2024-01-30T06:03:11;0.00;99.90
34099;DHT22;20374;49.474;10.944;2024-01-30T06:05:36;0.00;99.90
34099;DHT22;20374;49.474;10.944;2024-01-30T06:08:02;0.00;99.90
34099;DHT22;20374;49.474;10.944;2024-01-30T06:10:28;0.10;99.90
34099;DHT22;20374;49.474;10.944;2024-01-30T06:12:54;0.10;99.90
34099;DHT22;20374;49.474;10.944;2024-01-30T06:15:20;0.10;99.90
34099;DHT22;20374;49.474;10.944;2024-01-30T06:17:46;0.10;99.90
34099;DHT22;20374;49.474;10.944;2024-01-30T06:20:12;0.20;99.90
34099;DHT22;20374;49.474;10.944;2024-01-30T06:22:38;0.20;99.90
34099;DHT22;20374;49.474;10.944;2024-01-30T06:25:04;0.30;99.90
34099;DHT22;20374;49.474;10.944;2024-01-30T06:27:30;0.30;99.90
34099;DHT22;20374;49.474;10.944;2024-01-30T06:29:56;0.30;99.90
34099;DHT22;20374;49.474;10.944;2024-01-30T06:32:21;0.40;99.90
34099;DHT22;20374;49.474;10.944;2024-01-30T06:34:47;0.40;99.90
34099;DHT22;20374;49.474;10.944;2024-01-30T06:37:13;0.40;99.90
34099;DHT22;20374;49.474;10.944;2024-01-30T06:39:39;0.50;99.90
34099;DHT22;20374;49.474;10.944;2024-01-30T06:42:05;0.50;99.90
34099;DHT22;20374;49.474;10.944;2024-01-30T06:44:31;0.50;99.90
34099;DHT22;20374;49.474;10.944;2024-01-30T06:46:57;0.50;99.90
34099;DHT22;20374;49.474;10.944;2024-01-30T06:49:23;0.60;99.90
34099;DHT22;20374;49.474;10.944;2024-01-30T06:51:49;0.60;99.90
34099;DHT22;20374;49.474;10.944;2024-01-30T06:54:14;0.60;99.90
34099;DHT22;20374;49.474;10.944;2024-01-30T06:56:40;0.60;99.90
34099;DHT22;20374;49.474;10.944;2024-01-30T06:59:06;0.60;99.90
34099;DHT22;20374;49.474;10.944;2024-01-30T07:01:32;0.60;99.90
34099;DHT22;20374;49.474;10.944;2024-01-30T07:03:58;0.60;99.90
34099;DHT22;20374;49.474;10.944;2024-01-30T07:06:24;0.60;99.90
34099;DHT22;20374;49.474;10.944;2024-01-30T07:08:50;0.60;99.90
34099;DHT22;20374;49.474;10.944;2024-01-30T07:11:20;0.60;99.90
34099;DHT22;20374;49.474;10.944;2024-01-30T07:13:52;0.70;99.90
34099;DHT22;20374;49.474;10.944;2024-01-30T07:16:18;0.70;99.90
34099;DHT22;20374;49.474;10.944;2024-01-30T07:18:44;0.80;99.90
34099;DHT22;20374;49.474;10.944;2024-01-30T07:21:11;0.80;99.90
34099;DHT22;20374;49.474;10.944;2024-01-30T07:23:36;0.80;99.90
34099;DHT22;20374;49.474;10.944;2024-01-30T07:26:05;0.90;99.90
34099;DHT22;20374;49.474;10.944;2024-01-30T07:28:32;1.00;99.90
34099;DHT22;20374;49.474;10.944;2024-01-30T07:30:59;1.10;99.90
34099;DHT22;20374;49.474;10.944;2024-01-30T07:33:25;1.10;99.90
34099;DHT22;20374;49.474;10.944;2024-01-30T07:35:52;1.20;99.90
34099;DHT22;20374;49.474;10.944;2024-01-30T07:38:19;1.30;99.90
34099;DHT22;20374;49.474;10.944;2024-01-30T07:40:45;1.30;99.90
34099;DHT22;20374;49.474;10.944;2024-01-30T07:43:11;1.30;99.90
34099;DHT22;20374;49.474;10.944;2024-01-30T07:45:37;1.40;99.90
34099;DHT22;20374;49.474;10.944;2024-01-30T07:48:05;1.40;99.90
34099;DHT22;20374;49.474;10.944;2024-01-30T07:50:31;1.50;99.90
34099;DHT22;20374;49.474;10.944;2024-01-30T07:53:00;1.50;99.90
34099;DHT22;20374;49.474;10.944;2024-01-30T07:55:26;1.70;99.90
34099;DHT22;20374;49.474;10.944;2024-01-30T07:57:54;1.70;99.90
34099;DHT22;20374;49.474;10.944;2024-01-30T08:00:21;1.80;99.90
34099;DHT22;20374;49.474;10.944;2024-01-30T08:02:47;1.90;99.90
34099;DHT22;20374;49.474;10.944;2024-01-30T08:05:14;2.00;99.90
34099;DHT22;20374;49.474;10.944;2024-01-30T08:07:43;2.10;99.90
34099;DHT22;20374;49.474;10.944;2024-01-30T08:10:11;2.00;99.90
34099;DHT22;20374;49.474;10.944;2024-01-30T08:12:38;2.10;99.90
34099;DHT22;20374;49.474;10.944;2024-01-30T08:15:05;2.20;99.90
34099;DHT22;20374;49.474;10.944;2024-01-30T08:17:31;2.20;99.90
34099;DHT22;20374;49.474;10.944;2024-01-30T08:19:57;2.20;99.90
34099;DHT22;20374;49.474;10.944;2024-01-30T08:22:22;2.20;99.90
34099;DHT22;20374;49.474;10.944;2024-01-30T08:24:48;2.30;99.90
34099;DHT22;20374;49.474;10.944;2024-01-30T08:27:14;2.40;99.90
34099;DHT22;20374;49.474;10.944;2024-01-30T08:29:40;2.30;99.90
34099;DHT22;20374;49.474;10.944;2024-01-30T08:32:06;2.50;99.90
34099;DHT22;20374;49.474;10.944;2024-01-30T08:34:33;2.60;99.90
34099;DHT22;20374;49.474;10.944;2024-01-30T08:36:59;2.60;99.90
34099;DHT22;20374;49.474;10.944;2024-01-30T08:39:25;2.60;99.90
34099;DHT22;20374;49.474;10.944;2024-01-30T08:41:51;2.70;99.90
34099;DHT22;20374;49.474;10.944;2024-01-30T08:44:17;2.70;99.90
34099;DHT22;20374;49.474;10.944;2024-01-30T08:46:46;2.70;99.90
34099;DHT22;20374;49.474;10.944;2024-01-30T08:49:13;2.70;99.90
34099;DHT22;20374;49.474;10.944;2024-01-30T08:51:39;2.70;99.90
34099;DHT22;20374;49.474;10.944;2024-01-30T08:54:05;2.70;99.90
34099;DHT22;20374;49.474;10.944;2024-01-30T08:56:31;2.80;99.90
34099;DHT22;20374;49.474;10.944;2024-01-30T08:58:57;2.90;99.90
34099;DHT22;20374;49.474;10.944;2024-01-30T09:01:23;3.00;99.90
34099;DHT22;20374;49.474;10.944;2024-01-30T09:03:49;3.00;99.90
34099;DHT22;20374;49.474;10.944;2024-01-30T09:06:15;3.10;99.90
34099;DHT22;20374;49.474;10.944;2024-01-30T09:08:40;3.20;99.90
34099;DHT22;20374;49.474;10.944;2024-01-30T09:11:11;3.30;99.90
34099;DHT22;20374;49.474;10.944;2024-01-30T09:13:37;3.40;99.90
34099;DHT22;20374;49.474;10.944;2024-01-30T09:16:04;3.60;99.90
34099;DHT22;20374;49.474;10.944;2024-01-30T09:18:30;3.70;99.90
34099;DHT22;20374;49.474;10.944;2024-01-30T09:20:56;3.80;99.90
34099;DHT22;20374;49.474;10.944;2024-01-30T09:23:22;4.00;99.90
34099;DHT22;20374;49.474;10.944;2024-01-30T09:25:48;4.10;99.90
34099;DHT22;20374;49.474;10.944;2024-01-30T09:28:14;4.20;99.90
34099;DHT22;20374;49.474;10.944;2024-01-30T09:30:40;4.30;99.90
34099;DHT22;20374;49.474;10.944;2024-01-30T09:33:06;4.50;99.90
34099;DHT22;20374;49.474;10.944;2024-01-30T09:35:32;4.60;99.90
34099;DHT22;20374;49.474;10.944;2024-01-30T09:37:59;4.70;99.90
34099;DHT22;20374;49.474;10.944;2024-01-30T09:40:25;4.70;99.90
34099;DHT22;20374;49.474;10.944;2024-01-30T09:42:51;4.70;99.90
34099;DHT22;20374;49.474;10.944;2024-01-30T09:45:24;4.80;99.90
34099;DHT22;20374;49.474;10.944;2024-01-30T09:47:51;4.80;99.90
34099;DHT22;20374;49.474;10.944;2024-01-30T09:50:18;4.80;99.90
34099;DHT22;20374;49.474;10.944;2024-01-30T09:52:45;4.80;99.90
34099;DHT22;20374;49.474;10.944;2024-01-30T09:55:11;4.90;99.90
34099;DHT22;20374;49.474;10.944;2024-01-30T09:57:37;5.00;99.90
34099;DHT22;20374;49.474;10.944;2024-01-30T10:00:04;5.00;99.90
34099;DHT22;20374;49.474;10.944;2024-01-30T10:02:38;5.00;99.90
34099;DHT22;20374;49.474;10.944;2024-01-30T10:05:05;5.10;99.90
34099;DHT22;20374;49.474;10.944;2024-01-30T10:07:31;5.10;99.90
34099;DHT22;20374;49.474;10.944;2024-01-30T10:09:57;5.20;99.90
34099;DHT22;20374;49.474;10.944;2024-01-30T10:12:25;5.30;99.90
34099;DHT22;20374;49.474;10.944;2024-01-30T10:14:51;5.40;99.90
34099;DHT22;20374;49.474;10.944;2024-01-30T10:17:17;5.50;99.90
34099;DHT22;20374;49.474;10.944;2024-01-30T10:19:43;5.50;99.90
34099;DHT22;20374;49.474;10.944;2024-01-30T10:22:09;5.40;99.90
34099;DHT22;20374;49.474;10.944;2024-01-30T10:24:35;5.50;99.90
34099;DHT22;20374;49.474;10.944;2024-01-30T10:27:02;5.50;99.90
34099;DHT22;20374;49.474;10.944;2024-01-30T10:29:28;5.50;99.90
34099;DHT22;20374;49.474;10.944;2024-01-30T10:32:01;5.60;99.90
34099;DHT22;20374;49.474;10.944;2024-01-30T10:34:27;5.70;99.90
34099;DHT22;20374;49.474;10.944;2024-01-30T10:37:01;5.80;99.90
34099;DHT22;20374;49.474;10.944;2024-01-30T10:39:37;5.90;99.90
34099;DHT22;20374;49.474;10.944;2024-01-30T10:42:05;6.00;99.90
34099;DHT22;20374;49.474;10.944;2024-01-30T10:44:40;5.90;99.90
34099;DHT22;20374;49.474;10.944;2024-01-30T10:47:12;6.00;99.90
34099;DHT22;20374;49.474;10.944;2024-01-30T10:49:41;6.00;99.90
34099;DHT22;20374;49.474;10.944;2024-01-30T10:52:12;6.10;99.90
34099;DHT22;20374;49.474;10.944;2024-01-30T10:54:40;6.10;99.90
34099;DHT22;20374;49.474;10.944;2024-01-30T10:57:10;6.20;99.90
34099;DHT22;20374;49.474;10.944;2024-01-30T10:59:37;6.30;99.90
34099;DHT22;20374;49.474;10.944;2024-01-30T11:02:03;6.50;99.90
34099;DHT22;20374;49.474;10.944;2024-01-30T11:04:40;6.60;99.90
34099;DHT22;20374;49.474;10.944;2024-01-30T11:07:17;6.80;99.90
34099;DHT22;20374;49.474;10.944;2024-01-30T11:09:50;7.00;99.90
34099;DHT22;20374;49.474;10.944;2024-01-30T11:12:16;7.10;99.90
34099;DHT22;20374;49.474;10.944;2024-01-30T11:14:42;7.20;99.90
34099;DHT22;20374;49.474;10.944;2024-01-30T11:17:10;7.30;99.90
34099;DHT22;20374;49.474;10.944;2024-01-30T11:19:38;7.40;99.90
34099;DHT22;20374;49.474;10.944;2024-01-30T11:22:06;7.50;99.90
34099;DHT22;20374;49.474;10.944;2024-01-30T11:24:40;7.60;99.90
34099;DHT22;20374;49.474;10.944;2024-01-30T11:27:09;7.70;99.90
34099;DHT22;20374;49.474;10.944;2024-01-30T11:29:37;7.80;99.90
34099;DHT22;20374;49.474;10.944;2024-01-30T11:32:04;7.80;99.90
34099;DHT22;20374;49.474;10.944;2024-01-30T11:34:32;7.90;99.90
34099;DHT22;20374;49.474;10.944;2024-01-30T11:37:03;7.90;99.90
34099;DHT22;20374;49.474;10.944;2024-01-30T11:39:30;8.00;99.90
34099;DHT22;20374;49.474;10.944;2024-01-30T11:41:56;7.90;99.90
34099;DHT22;20374;49.474;10.944;2024-01-30T11:44:23;8.00;99.90
34099;DHT22;20374;49.474;10.944;2024-01-30T11:46:50;8.00;99.90
34099;DHT22;20374;49.474;10.944;2024-01-30T11:49:16;8.10;99.90
34099;DHT22;20374;49.474;10.944;2024-01-30T11:51:45;8.20;99.90
34099;DHT22;20374;49.474;10.944;2024-01-30T11:54:11;8.20;99.90
34099;DHT22;20374;49.474;10.944;2024-01-30T11:56:37;8.20;99.90
34099;DHT22;20374;49.474;10.944;2024-01-30T11:59:14;8.20;99.90
34099;DHT22;20374;49.474;10.944;2024-01-30T12:01:40;8.30;99.90
34099;DHT22;20374;49.474;10.944;2024-01-30T12:04:08;8.30;99.90
34099;DHT22;20374;49.474;10.944;2024-01-30T12:06:34;8.50;99.90
34099;DHT22;20374;49.474;10.944;2024-01-30T12:09:02;8.60;99.90
34099;DHT22;20374;49.474;10.944;2024-01-30T12:11:46;8.70;99.90
34099;DHT22;20374;49.474;10.944;2024-01-30T12:14:12;8.90;99.90
34099;DHT22;20374;49.474;10.944;2024-01-30T12:16:38;9.00;99.90
34099;DHT22;20374;49.474;10.944;2024-01-30T12:19:04;9.30;99.90
34099;DHT22;20374;49.474;10.944;2024-01-30T12:21:30;9.50;99.60
34099;DHT22;20374;49.474;10.944;2024-01-30T12:23:57;9.60;99.40
34099;DHT22;20374;49.474;10.944;2024-01-30T12:26:24;9.50;99.00
34099;DHT22;20374;49.474;10.944;2024-01-30T12:28:56;9.50;98.90
34099;DHT22;20374;49.474;10.944;2024-01-30T12:31:32;9.40;98.80
34099;DHT22;20374;49.474;10.944;2024-01-30T12:34:01;9.30;99.20
34099;DHT22;20374;49.474;10.944;2024-01-30T12:36:29;9.30;99.30
34099;DHT22;20374;49.474;10.944;2024-01-30T12:38:57;9.40;99.30
34099;DHT22;20374;49.474;10.944;2024-01-30T12:41:23;9.50;99.60
34099;DHT22;20374;49.474;10.944;2024-01-30T12:43:54;9.60;99.00
34099;DHT22;20374;49.474;10.944;2024-01-30T12:46:20;9.80;98.90
34099;DHT22;20374;49.474;10.944;2024-01-30T12:48:46;10.00;97.60
34099;DHT22;20374;49.474;10.944;2024-01-30T12:51:12;10.00;97.60
34099;DHT22;20374;49.474;10.944;2024-01-30T12:53:37;9.90;97.80
34099;DHT22;20374;49.474;10.944;2024-01-30T12:56:03;9.90;98.20
34099;DHT22;20374;49.474;10.944;2024-01-30T12:58:29;9.90;98.00
34099;DHT22;20374;49.474;10.944;2024-01-30T13:00:55;9.90;97.90
34099;DHT22;20374;49.474;10.944;2024-01-30T13:03:22;10.10;97.20
34099;DHT22;20374;49.474;10.944;2024-01-30T13:05:48;10.20;97.80
34099;DHT22;20374;49.474;10.944;2024-01-30T13:08:14;10.70;96.40
34099;DHT22;20374;49.474;10.944;2024-01-30T13:10:40;11.20;96.40
34099;DHT22;20374;49.474;10.944;2024-01-30T13:13:06;11.80;95.00
34099;DHT22;20374;49.474;10.944;2024-01-30T13:15:31;12.10;94.40
34099;DHT22;20374;49.474;10.944;2024-01-30T13:17:57;12.10;93.80
34099;DHT22;20374;49.474;10.944;2024-01-30T13:20:23;12.10;93.20
34099;DHT22;20374;49.474;10.944;2024-01-30T13:22:49;11.80;93.60
34099;DHT22;20374;49.474;10.944;2024-01-30T13:25:16;11.60;93.60
34099;DHT22;20374;49.474;10.944;2024-01-30T13:27:42;11.70;94.00
34099;DHT22;20374;49.474;10.944;2024-01-30T13:30:08;11.50;94.10
34099;DHT22;20374;49.474;10.944;2024-01-30T13:32:37;11.60;94.30
34099;DHT22;20374;49.474;10.944;2024-01-30T13:35:03;11.50;94.10
34099;DHT22;20374;49.474;10.944;2024-01-30T13:37:30;11.60;94.40
34099;DHT22;20374;49.474;10.944;2024-01-30T13:39:56;11.70;93.80
34099;DHT22;20374;49.474;10.944;2024-01-30T13:42:22;11.70;93.50
34099;DHT22;20374;49.474;10.944;2024-01-30T13:44:49;11.90;93.60
34099;DHT22;20374;49.474;10.944;2024-01-30T13:47:15;11.90;93.00
34099;DHT22;20374;49.474;10.944;2024-01-30T13:49:41;11.80;93.40
34099;DHT22;20374;49.474;10.944;2024-01-30T13:52:07;11.40;93.60
34099;DHT22;20374;49.474;10.944;2024-01-30T13:54:34;11.20;93.90
34099;DHT22;20374;49.474;10.944;2024-01-30T13:56:59;11.00;94.30
34099;DHT22;20374;49.474;10.944;2024-01-30T13:59:26;10.80;94.80
34099;DHT22;20374;49.474;10.944;2024-01-30T14:01:51;10.70;95.10
34099;DHT22;20374;49.474;10.944;2024-01-30T14:04:17;10.50;95.40
34099;DHT22;20374;49.474;10.944;2024-01-30T14:06:43;10.40;95.70
34099;DHT22;20374;49.474;10.944;2024-01-30T14:09:09;10.30;96.00
34099;DHT22;20374;49.474;10.944;2024-01-30T14:11:36;10.20;96.80
34099;DHT22;20374;49.474;10.944;2024-01-30T14:14:02;10.20;96.60
34099;DHT22;20374;49.474;10.944;2024-01-30T14:16:28;10.20;97.10
34099;DHT22;20374;49.474;10.944;2024-01-30T14:18:54;10.20;96.90
34099;DHT22;20374;49.474;10.944;2024-01-30T14:21:20;10.10;96.80
34099;DHT22;20374;49.474;10.944;2024-01-30T14:23:46;10.00;97.10
34099;DHT22;20374;49.474;10.944;2024-01-30T14:26:12;10.00;97.30
34099;DHT22;20374;49.474;10.944;2024-01-30T14:28:38;10.00;97.40
34099;DHT22;20374;49.474;10.944;2024-01-30T14:31:04;10.00;97.50
34099;DHT22;20374;49.474;10.944;2024-01-30T14:33:31;10.20;97.40
34099;DHT22;20374;49.474;10.944;2024-01-30T14:35:57;10.20;97.10
34099;DHT22;20374;49.474;10.944;2024-01-30T14:38:23;10.30;97.00
34099;DHT22;20374;49.474;10.944;2024-01-30T14:40:50;10.30;96.90
34099;DHT22;20374;49.474;10.944;2024-01-30T14:43:16;10.20;96.80
34099;DHT22;20374;49.474;10.944;2024-01-30T14:45:42;10.00;96.90
34099;DHT22;20374;49.474;10.944;2024-01-30T14:48:08;9.90;98.00
34099;DHT22;20374;49.474;10.944;2024-01-30T14:50:34;9.70;98.40
34099;DHT22;20374;49.474;10.944;2024-01-30T14:53:00;9.60;98.60
34099;DHT22;20374;49.474;10.944;2024-01-30T14:55:26;9.60;98.90
34099;DHT22;20374;49.474;10.944;2024-01-30T14:57:52;9.60;98.90
34099;DHT22;20374;49.474;10.944;2024-01-30T15:00:18;9.50;99.00
34099;DHT22;20374;49.474;10.944;2024-01-30T15:02:44;9.50;99.10
34099;DHT22;20374;49.474;10.944;2024-01-30T15:05:12;9.40;99.60
34099;DHT22;20374;49.474;10.944;2024-01-30T15:07:38;9.30;99.50
34099;DHT22;20374;49.474;10.944;2024-01-30T15:10:05;9.20;99.70
34099;DHT22;20374;49.474;10.944;2024-01-30T15:12:31;9.20;99.90
34099;DHT22;20374;49.474;10.944;2024-01-30T15:14:57;9.10;99.90
34099;DHT22;20374;49.474;10.944;2024-01-30T15:17:22;9.00;99.90
34099;DHT22;20374;49.474;10.944;2024-01-30T15:19:48;8.90;99.90
34099;DHT22;20374;49.474;10.944;2024-01-30T15:22:16;8.80;99.90
34099;DHT22;20374;49.474;10.944;2024-01-30T15:24:42;8.80;99.90